sensor_id;sensor_type;location;lat;lon;timestamp;pressure;altitude;pressure_sealevel;temperature;humidity
20228;BME280;12195;55.790;37.572;2023-10-31T00:01:28;99036.14;;;11.03;79.75
20228;BME280;12195;55.790;37.572;2023-10-31T00:03:59;99048.42;;;10.89;79.96
20228;BME280;12195;55.790;37.572;2023-10-31T00:06:31;99034.77;;;10.97;80.09
20228;BME280;12195;55.790;37.572;2023-10-31T00:09:16;99048.33;;;11.03;79.85
20228;BME280;12195;55.790;37.572;2023-10-31T00:11:47;99051.16;;;11.00;78.93
20228;BME280;12195;55.790;37.572;2023-10-31T00:14:30;99060.31;;;11.08;79.39
20228;BME280;12195;55.790;37.572;2023-10-31T00:17:02;99054.20;;;10.94;79.36
20228;BME280;12195;55.790;37.572;2023-10-31T00:19:34;99060.50;;;10.92;79.46
20228;BME280;12195;55.790;37.572;2023-10-31T00:22:05;99060.59;;;10.90;79.54
20228;BME280;12195;55.790;37.572;2023-10-31T00:24:47;99071.02;;;11.04;79.76
20228;BME280;12195;55.790;37.572;2023-10-31T00:30:42;99064.17;;;10.89;79.79
20228;BME280;12195;55.790;37.572;2023-10-31T00:33:24;99077.94;;;10.93;80.02
20228;BME280;12195;55.790;37.572;2023-10-31T00:35:56;99080.75;;;10.90;80.06
20228;BME280;12195;55.790;37.572;2023-10-31T00:38:42;99080.56;;;10.93;80.16
20228;BME280;12195;55.790;37.572;2023-10-31T00:41:15;99072.88;;;10.90;80.19
20228;BME280;12195;55.790;37.572;2023-10-31T00:43:46;99091.39;;;10.88;80.25
20228;BME280;12195;55.790;37.572;2023-10-31T00:46:30;99096.42;;;10.91;80.17
20228;BME280;12195;55.790;37.572;2023-10-31T00:49:01;99093.01;;;10.77;80.14
20228;BME280;12195;55.790;37.572;2023-10-31T00:51:45;99092.97;;;10.91;80.52
20228;BME280;12195;55.790;37.572;2023-10-31T00:54:16;99104.02;;;10.69;80.67
20228;BME280;12195;55.790;37.572;2023-10-31T00:56:59;99107.34;;;10.85;80.87
20228;BME280;12195;55.790;37.572;2023-10-31T00:59:41;99115.22;;;10.85;80.88
20228;BME280;12195;55.790;37.572;2023-10-31T01:02:13;99106.20;;;10.63;80.80
20228;BME280;12195;55.790;37.572;2023-10-31T01:08:34;99114.88;;;10.77;80.77
20228;BME280;12195;55.790;37.572;2023-10-31T01:11:05;99117.66;;;10.62;80.79
20228;BME280;12195;55.790;37.572;2023-10-31T01:13:37;99126.54;;;10.59;81.01
20228;BME280;12195;55.790;37.572;2023-10-31T01:16:20;99121.80;;;10.78;81.01
20228;BME280;12195;55.790;37.572;2023-10-31T01:18:52;99117.75;;;10.60;80.87
20228;BME280;12195;55.790;37.572;2023-10-31T01:21:34;99128.38;;;10.71;81.00
20228;BME280;12195;55.790;37.572;2023-10-31T01:24:06;99127.80;;;10.54;81.19
20228;BME280;12195;55.790;37.572;2023-10-31T01:26:39;99134.63;;;10.56;81.31
20228;BME280;12195;55.790;37.572;2023-10-31T01:29:11;99137.45;;;10.53;81.45
20228;BME280;12195;55.790;37.572;2023-10-31T01:31:43;99136.59;;;10.53;81.50
20228;BME280;12195;55.790;37.572;2023-10-31T01:34:16;99147.09;;;10.53;81.50
20228;BME280;12195;55.790;37.572;2023-10-31T01:37:00;99148.25;;;10.75;81.30
20228;BME280;12195;55.790;37.572;2023-10-31T01:39:31;99155.23;;;10.62;81.06
20228;BME280;12195;55.790;37.572;2023-10-31T01:42:03;99163.29;;;10.59;81.12
20228;BME280;12195;55.790;37.572;2023-10-31T01:44:35;99172.97;;;10.59;80.92
20228;BME280;12195;55.790;37.572;2023-10-31T01:47:06;99173.91;;;10.58;80.71
20228;BME280;12195;55.790;37.572;2023-10-31T01:49:51;99167.98;;;10.68;80.93
20228;BME280;12195;55.790;37.572;2023-10-31T01:52:23;99178.68;;;10.51;81.03
20228;BME280;12195;55.790;37.572;2023-10-31T01:55:09;99188.98;;;10.68;80.95
20228;BME280;12195;55.790;37.572;2023-10-31T01:57:52;99194.02;;;10.71;80.71
20228;BME280;12195;55.790;37.572;2023-10-31T02:00:24;99193.66;;;10.63;80.76
20228;BME280;12195;55.790;37.572;2023-10-31T02:03:08;99194.19;;;10.82;80.28
20228;BME280;12195;55.790;37.572;2023-10-31T02:05:40;99192.80;;;10.77;79.53
20228;BME280;12195;55.790;37.572;2023-10-31T02:08:22;99201.88;;;10.85;79.45
20228;BME280;12195;55.790;37.572;2023-10-31T02:10:54;99205.28;;;10.73;79.49
20228;BME280;12195;55.790;37.572;2023-10-31T02:13:37;99201.38;;;10.93;79.56
20228;BME280;12195;55.790;37.572;2023-10-31T02:16:09;99199.36;;;10.70;79.60
20228;BME280;12195;55.790;37.572;2023-10-31T02:18:41;99204.92;;;10.65;79.80
20228;BME280;12195;55.790;37.572;2023-10-31T02:21:24;99216.73;;;10.72;80.17
20228;BME280;12195;55.790;37.572;2023-10-31T02:23:57;99218.72;;;10.55;80.16
20228;BME280;12195;55.790;37.572;2023-10-31T02:26:41;99220.86;;;10.62;80.49
20228;BME280;12195;55.790;37.572;2023-10-31T02:29:13;99230.83;;;10.43;80.71
20228;BME280;12195;55.790;37.572;2023-10-31T02:31:56;99221.63;;;10.50;81.03
20228;BME280;12195;55.790;37.572;2023-10-31T02:34:28;99220.23;;;10.31;81.08
20228;BME280;12195;55.790;37.572;2023-10-31T02:37:10;99230.34;;;10.37;81.71
20228;BME280;12195;55.790;37.572;2023-10-31T02:39:42;99230.83;;;10.15;81.64
20228;BME280;12195;55.790;37.572;2023-10-31T02:42:24;99236.71;;;10.33;81.92
20228;BME280;12195;55.790;37.572;2023-10-31T02:44:56;99236.42;;;10.09;81.70
20228;BME280;12195;55.790;37.572;2023-10-31T02:47:40;99249.27;;;10.28;81.61
20228;BME280;12195;55.790;37.572;2023-10-31T02:50:12;99247.30;;;10.17;81.51
20228;BME280;12195;55.790;37.572;2023-10-31T02:52:44;99246.19;;;10.21;81.43
20228;BME280;12195;55.790;37.572;2023-10-31T02:55:15;99255.55;;;10.25;81.37
20228;BME280;12195;55.790;37.572;2023-10-31T02:57:47;99259.69;;;10.29;81.51
20228;BME280;12195;55.790;37.572;2023-10-31T03:00:31;99243.10;;;10.43;81.52
20228;BME280;12195;55.790;37.572;2023-10-31T03:03:15;99244.30;;;10.51;81.76
20228;BME280;12195;55.790;37.572;2023-10-31T03:05:47;99251.16;;;10.40;81.73
20228;BME280;12195;55.790;37.572;2023-10-31T03:08:29;99262.49;;;10.54;81.75
20228;BME280;12195;55.790;37.572;2023-10-31T03:11:01;99257.81;;;10.45;81.96
20228;BME280;12195;55.790;37.572;2023-10-31T03:13:32;99258.77;;;10.44;81.84
20228;BME280;12195;55.790;37.572;2023-10-31T03:16:15;99264.76;;;10.60;82.01
20228;BME280;12195;55.790;37.572;2023-10-31T03:18:47;99269.05;;;10.47;81.98
20228;BME280;12195;55.790;37.572;2023-10-31T03:21:30;99271.51;;;10.64;82.03
20228;BME280;12195;55.790;37.572;2023-10-31T03:24:02;99270.55;;;10.51;82.04
20228;BME280;12195;55.790;37.572;2023-10-31T03:26:34;99276.01;;;10.48;82.05
20228;BME280;12195;55.790;37.572;2023-10-31T03:29:17;99277.30;;;10.55;82.04
20228;BME280;12195;55.790;37.572;2023-10-31T03:31:50;99276.75;;;10.36;82.01
20228;BME280;12195;55.790;37.572;2023-10-31T03:34:33;99272.83;;;10.43;82.21
20228;BME280;12195;55.790;37.572;2023-10-31T03:37:06;99288.72;;;10.26;82.21
20228;BME280;12195;55.790;37.572;2023-10-31T03:39:48;99286.86;;;10.42;81.90
20228;BME280;12195;55.790;37.572;2023-10-31T03:42:19;99290.39;;;10.13;81.69
20228;BME280;12195;55.790;37.572;2023-10-31T03:45:02;99293.23;;;10.24;81.82
20228;BME280;12195;55.790;37.572;2023-10-31T03:47:34;99294.48;;;10.03;81.65
20228;BME280;12195;55.790;37.572;2023-10-31T03:50:17;99296.41;;;10.15;81.66
20228;BME280;12195;55.790;37.572;2023-10-31T03:52:49;99303.12;;;10.05;81.70
20228;BME280;12195;55.790;37.572;2023-10-31T03:55:32;99301.36;;;10.20;81.69
20228;BME280;12195;55.790;37.572;2023-10-31T03:58:04;99314.95;;;10.12;81.74
20228;BME280;12195;55.790;37.572;2023-10-31T04:00:48;99315.91;;;10.25;81.82
20228;BME280;12195;55.790;37.572;2023-10-31T04:03:20;99315.42;;;10.19;81.97
20228;BME280;12195;55.790;37.572;2023-10-31T04:05:51;99321.16;;;10.25;82.06
20228;BME280;12195;55.790;37.572;2023-10-31T04:08:36;99317.63;;;10.40;82.01
20228;BME280;12195;55.790;37.572;2023-10-31T04:11:08;99325.28;;;10.29;81.91
20228;BME280;12195;55.790;37.572;2023-10-31T04:13:52;99320.80;;;10.45;81.97
20228;BME280;12195;55.790;37.572;2023-10-31T04:16:24;99320.59;;;10.34;81.92
20228;BME280;12195;55.790;37.572;2023-10-31T04:19:07;99322.40;;;10.48;82.05
20228;BME280;12195;55.790;37.572;2023-10-31T04:21:39;99338.87;;;10.36;82.25
20228;BME280;12195;55.790;37.572;2023-10-31T04:24:23;99333.84;;;10.47;82.30
20228;BME280;12195;55.790;37.572;2023-10-31T04:26:56;99335.31;;;10.37;82.47
20228;BME280;12195;55.790;37.572;2023-10-31T04:29:29;99346.48;;;10.40;82.54
20228;BME280;12195;55.790;37.572;2023-10-31T04:32:15;99343.05;;;10.54;82.50
20228;BME280;12195;55.790;37.572;2023-10-31T04:34:46;99340.20;;;10.43;82.36
20228;BME280;12195;55.790;37.572;2023-10-31T04:37:29;99341.16;;;10.56;82.37
20228;BME280;12195;55.790;37.572;2023-10-31T04:40:03;99353.25;;;10.44;82.32
20228;BME280;12195;55.790;37.572;2023-10-31T04:42:48;99336.55;;;10.59;82.31
20228;BME280;12195;55.790;37.572;2023-10-31T04:45:19;99352.04;;;10.50;82.20
20228;BME280;12195;55.790;37.572;2023-10-31T04:47:51;99356.26;;;10.52;82.18
20228;BME280;12195;55.790;37.572;2023-10-31T04:50:35;99348.20;;;10.69;82.19
20228;BME280;12195;55.790;37.572;2023-10-31T04:53:07;99354.66;;;10.64;82.17
20228;BME280;12195;55.790;37.572;2023-10-31T04:55:52;99356.38;;;10.79;82.10
20228;BME280;12195;55.790;37.572;2023-10-31T04:58:24;99359.74;;;10.67;82.04
20228;BME280;12195;55.790;37.572;2023-10-31T05:01:09;99365.93;;;10.80;82.12
20228;BME280;12195;55.790;37.572;2023-10-31T05:03:41;99371.66;;;10.72;82.08
20228;BME280;12195;55.790;37.572;2023-10-31T05:06:18;99374.07;;;10.75;82.08
20228;BME280;12195;55.790;37.572;2023-10-31T05:08:59;99368.63;;;10.92;82.06
20228;BME280;12195;55.790;37.572;2023-10-31T05:11:32;99372.30;;;10.76;81.93
20228;BME280;12195;55.790;37.572;2023-10-31T05:14:06;99373.04;;;10.78;81.90
20228;BME280;12195;55.790;37.572;2023-10-31T05:16:41;99381.42;;;10.84;81.88
20228;BME280;12195;55.790;37.572;2023-10-31T05:19:13;99383.02;;;10.87;81.79
20228;BME280;12195;55.790;37.572;2023-10-31T05:21:46;99389.56;;;10.94;81.81
20228;BME280;12195;55.790;37.572;2023-10-31T05:24:30;99378.03;;;11.11;81.73
20228;BME280;12195;55.790;37.572;2023-10-31T05:27:03;99389.02;;;11.03;81.70
20228;BME280;12195;55.790;37.572;2023-10-31T05:29:46;99384.38;;;11.21;81.70
20228;BME280;12195;55.790;37.572;2023-10-31T05:32:18;99379.80;;;11.10;81.67
20228;BME280;12195;55.790;37.572;2023-10-31T05:35:00;99381.39;;;11.27;81.74
20228;BME280;12195;55.790;37.572;2023-10-31T05:37:43;99396.22;;;11.28;81.81
20228;BME280;12195;55.790;37.572;2023-10-31T05:40:15;99400.64;;;11.13;81.56
20228;BME280;12195;55.790;37.572;2023-10-31T05:42:59;99413.11;;;11.24;81.63
20228;BME280;12195;55.790;37.572;2023-10-31T05:45:32;99416.58;;;11.10;81.60
20228;BME280;12195;55.790;37.572;2023-10-31T05:48:17;99422.77;;;11.23;81.60
20228;BME280;12195;55.790;37.572;2023-10-31T05:50:49;99427.77;;;11.14;81.50
20228;BME280;12195;55.790;37.572;2023-10-31T05:53:33;99430.94;;;11.33;81.19
20228;BME280;12195;55.790;37.572;2023-10-31T05:56:06;99433.09;;;11.26;81.09
20228;BME280;12195;55.790;37.572;2023-10-31T05:58:39;99443.13;;;11.34;81.02
20228;BME280;12195;55.790;37.572;2023-10-31T06:01:24;99437.97;;;11.60;80.57
20228;BME280;12195;55.790;37.572;2023-10-31T06:03:58;99444.45;;;11.55;80.50
20228;BME280;12195;55.790;37.572;2023-10-31T06:06:40;99443.13;;;11.76;80.37
20228;BME280;12195;55.790;37.572;2023-10-31T06:09:24;99450.33;;;11.86;80.23
20228;BME280;12195;55.790;37.572;2023-10-31T06:11:57;99452.51;;;11.80;80.19
20228;BME280;12195;55.790;37.572;2023-10-31T06:14:31;99456.23;;;11.90;80.11
20228;BME280;12195;55.790;37.572;2023-10-31T06:17:19;99466.86;;;12.15;79.95
20228;BME280;12195;55.790;37.572;2023-10-31T06:19:52;99472.34;;;12.12;79.71
20228;BME280;12195;55.790;37.572;2023-10-31T06:22:25;99472.66;;;12.20;79.65
20228;BME280;12195;55.790;37.572;2023-10-31T06:25:12;99469.70;;;12.38;79.50
20228;BME280;12195;55.790;37.572;2023-10-31T06:27:44;99467.55;;;12.31;79.40
20228;BME280;12195;55.790;37.572;2023-10-31T06:30:16;99476.94;;;12.35;79.40
20228;BME280;12195;55.790;37.572;2023-10-31T06:33:02;99459.00;;;12.54;79.21
20228;BME280;12195;55.790;37.572;2023-10-31T06:35:34;99474.65;;;12.43;79.21
20228;BME280;12195;55.790;37.572;2023-10-31T06:38:17;99454.36;;;12.57;79.10
20228;BME280;12195;55.790;37.572;2023-10-31T06:40:50;99460.05;;;12.51;79.04
20228;BME280;12195;55.790;37.572;2023-10-31T06:43:34;99463.88;;;12.72;78.92
20228;BME280;12195;55.790;37.572;2023-10-31T06:46:06;99470.49;;;12.65;78.68
20228;BME280;12195;55.790;37.572;2023-10-31T06:48:38;99477.88;;;12.73;78.55
20228;BME280;12195;55.790;37.572;2023-10-31T06:51:22;99469.58;;;12.91;78.31
20228;BME280;12195;55.790;37.572;2023-10-31T06:53:54;99474.41;;;12.85;77.70
20228;BME280;12195;55.790;37.572;2023-10-31T06:56:39;99486.70;;;12.98;77.49
20228;BME280;12195;55.790;37.572;2023-10-31T06:59:12;99477.61;;;12.90;77.48
20228;BME280;12195;55.790;37.572;2023-10-31T07:01:45;99487.66;;;12.97;77.57
20228;BME280;12195;55.790;37.572;2023-10-31T07:04:29;99491.16;;;13.23;77.21
20228;BME280;12195;55.790;37.572;2023-10-31T07:07:01;99495.67;;;13.21;77.11
20228;BME280;12195;55.790;37.572;2023-10-31T07:09:46;99508.13;;;13.44;76.71
20228;BME280;12195;55.790;37.572;2023-10-31T07:12:18;99513.71;;;13.39;76.66
20228;BME280;12195;55.790;37.572;2023-10-31T07:14:51;99509.71;;;13.46;76.85
20228;BME280;12195;55.790;37.572;2023-10-31T07:17:40;99513.48;;;13.67;76.71
20228;BME280;12195;55.790;37.572;2023-10-31T07:20:12;99524.34;;;13.63;76.51
20228;BME280;12195;55.790;37.572;2023-10-31T07:22:54;99530.98;;;13.81;76.04
20228;BME280;12195;55.790;37.572;2023-10-31T07:25:26;99536.37;;;13.67;76.01
20228;BME280;12195;55.790;37.572;2023-10-31T07:27:58;99531.85;;;13.69;75.83
20228;BME280;12195;55.790;37.572;2023-10-31T07:30:43;99529.72;;;13.86;75.69
20228;BME280;12195;55.790;37.572;2023-10-31T07:33:15;99532.77;;;13.80;75.65
20228;BME280;12195;55.790;37.572;2023-10-31T07:35:59;99543.73;;;13.99;75.46
20228;BME280;12195;55.790;37.572;2023-10-31T07:38:31;99538.87;;;13.93;75.49
20228;BME280;12195;55.790;37.572;2023-10-31T07:41:04;99542.05;;;13.98;74.68
20228;BME280;12195;55.790;37.572;2023-10-31T07:43:48;99547.18;;;14.12;74.56
20228;BME280;12195;55.790;37.572;2023-10-31T07:46:20;99558.50;;;14.02;74.13
20228;BME280;12195;55.790;37.572;2023-10-31T07:49:03;99559.63;;;14.10;74.03
20228;BME280;12195;55.790;37.572;2023-10-31T07:51:35;99560.64;;;13.97;74.00
20228;BME280;12195;55.790;37.572;2023-10-31T07:54:17;99570.19;;;14.10;73.82
20228;BME280;12195;55.790;37.572;2023-10-31T07:56:50;99566.64;;;13.99;73.00
20228;BME280;12195;55.790;37.572;2023-10-31T07:59:34;99569.37;;;14.10;73.48
20228;BME280;12195;55.790;37.572;2023-10-31T08:02:06;99575.20;;;14.02;73.46
20228;BME280;12195;55.790;37.572;2023-10-31T08:05:11;99575.48;;;14.23;72.68
20228;BME280;12195;55.790;37.572;2023-10-31T08:07:44;99583.19;;;14.13;72.42
20228;BME280;12195;55.790;37.572;2023-10-31T08:10:15;99586.17;;;14.09;71.95
20228;BME280;12195;55.790;37.572;2023-10-31T08:13:00;99586.89;;;14.11;71.26
20228;BME280;12195;55.790;37.572;2023-10-31T08:15:33;99593.58;;;13.91;71.46
20228;BME280;12195;55.790;37.572;2023-10-31T08:18:19;99591.35;;;13.98;71.75
20228;BME280;12195;55.790;37.572;2023-10-31T08:20:51;99579.11;;;13.97;71.38
20228;BME280;12195;55.790;37.572;2023-10-31T08:23:35;99584.38;;;14.22;71.50
20228;BME280;12195;55.790;37.572;2023-10-31T08:26:08;99581.19;;;14.17;71.43
20228;BME280;12195;55.790;37.572;2023-10-31T08:28:53;99579.33;;;14.42;71.18
20228;BME280;12195;55.790;37.572;2023-10-31T08:31:26;99569.02;;;14.39;71.13
20228;BME280;12195;55.790;37.572;2023-10-31T08:34:13;99569.98;;;14.62;70.94
20228;BME280;12195;55.790;37.572;2023-10-31T08:36:45;99578.55;;;14.53;70.98
20228;BME280;12195;55.790;37.572;2023-10-31T08:39:28;99585.38;;;14.68;70.57
20228;BME280;12195;55.790;37.572;2023-10-31T08:42:02;99579.52;;;14.52;70.43
20228;BME280;12195;55.790;37.572;2023-10-31T08:44:46;99578.95;;;14.59;70.70
20228;BME280;12195;55.790;37.572;2023-10-31T08:47:18;99580.69;;;14.48;70.70
20228;BME280;12195;55.790;37.572;2023-10-31T08:50:03;99587.73;;;14.60;69.49
20228;BME280;12195;55.790;37.572;2023-10-31T08:52:38;99590.86;;;14.41;68.97
20228;BME280;12195;55.790;37.572;2023-10-31T08:55:22;99588.11;;;14.43;68.75
20228;BME280;12195;55.790;37.572;2023-10-31T08:57:54;99596.52;;;14.24;68.02
20228;BME280;12195;55.790;37.572;2023-10-31T09:00:38;99589.73;;;14.20;68.32
20228;BME280;12195;55.790;37.572;2023-10-31T09:03:12;99593.03;;;13.99;68.58
20228;BME280;12195;55.790;37.572;2023-10-31T09:05:44;99587.75;;;13.99;68.62
20228;BME280;12195;55.790;37.572;2023-10-31T09:08:29;99592.38;;;14.08;69.08
20228;BME280;12195;55.790;37.572;2023-10-31T09:11:07;99589.44;;;14.00;69.20
20228;BME280;12195;55.790;37.572;2023-10-31T09:13:49;99582.70;;;14.21;69.41
20228;BME280;12195;55.790;37.572;2023-10-31T09:16:21;99591.13;;;14.26;69.52
20228;BME280;12195;55.790;37.572;2023-10-31T09:19:05;99589.20;;;14.64;69.35
20228;BME280;12195;55.790;37.572;2023-10-31T09:21:38;99593.91;;;14.71;69.23
20228;BME280;12195;55.790;37.572;2023-10-31T09:24:23;99597.34;;;15.08;68.18
20228;BME280;12195;55.790;37.572;2023-10-31T09:26:55;99601.86;;;14.95;68.48
20228;BME280;12195;55.790;37.572;2023-10-31T09:29:39;99608.89;;;15.07;68.38
20228;BME280;12195;55.790;37.572;2023-10-31T09:32:11;99603.65;;;14.94;68.50
20228;BME280;12195;55.790;37.572;2023-10-31T09:34:43;99603.65;;;14.94;68.54
20228;BME280;12195;55.790;37.572;2023-10-31T09:37:28;99599.02;;;15.09;67.41
20228;BME280;12195;55.790;37.572;2023-10-31T09:40:00;99597.39;;;14.95;67.01
20228;BME280;12195;55.790;37.572;2023-10-31T09:42:45;99585.58;;;15.12;65.88
20228;BME280;12195;55.790;37.572;2023-10-31T09:45:17;99592.97;;;14.96;65.98
20228;BME280;12195;55.790;37.572;2023-10-31T09:48:00;99595.41;;;15.10;64.79
20228;BME280;12195;55.790;37.572;2023-10-31T09:50:32;99591.50;;;14.92;65.58
20228;BME280;12195;55.790;37.572;2023-10-31T09:53:17;99590.81;;;15.01;65.72
20228;BME280;12195;55.790;37.572;2023-10-31T09:56:02;99587.84;;;15.05;65.42
20228;BME280;12195;55.790;37.572;2023-10-31T09:58:35;99591.50;;;14.92;65.27
20228;BME280;12195;55.790;37.572;2023-10-31T10:01:07;99588.11;;;14.90;65.79
20228;BME280;12195;55.790;37.572;2023-10-31T10:03:51;99591.20;;;15.07;66.16
20228;BME280;12195;55.790;37.572;2023-10-31T10:06:40;99595.19;;;15.13;66.13
20228;BME280;12195;55.790;37.572;2023-10-31T10:09:13;99593.34;;;15.02;65.83
20228;BME280;12195;55.790;37.572;2023-10-31T10:11:46;99601.17;;;15.04;66.35
20228;BME280;12195;55.790;37.572;2023-10-31T10:14:31;99595.28;;;15.35;66.17
20228;BME280;12195;55.790;37.572;2023-10-31T10:20:07;99591.14;;;15.54;66.55
20228;BME280;12195;55.790;37.572;2023-10-31T10:22:41;99598.08;;;15.44;66.72
20228;BME280;12195;55.790;37.572;2023-10-31T10:25:19;99599.75;;;15.45;66.92
20228;BME280;12195;55.790;37.572;2023-10-31T10:28:00;99597.52;;;15.63;67.10
20228;BME280;12195;55.790;37.572;2023-10-31T10:30:32;99587.52;;;15.55;67.06
20228;BME280;12195;55.790;37.572;2023-10-31T10:33:17;99572.61;;;15.65;67.31
20228;BME280;12195;55.790;37.572;2023-10-31T10:35:49;99577.05;;;15.54;67.25
20228;BME280;12195;55.790;37.572;2023-10-31T10:38:33;99587.41;;;15.68;67.32
20228;BME280;12195;55.790;37.572;2023-10-31T10:41:06;99586.44;;;15.58;67.00
20228;BME280;12195;55.790;37.572;2023-10-31T10:43:40;99585.47;;;15.59;67.14
20228;BME280;12195;55.790;37.572;2023-10-31T10:46:24;99582.25;;;15.77;67.04
20228;BME280;12195;55.790;37.572;2023-10-31T10:48:57;99560.00;;;15.69;67.13
20228;BME280;12195;55.790;37.572;2023-10-31T10:51:49;99550.83;;;15.84;67.04
20228;BME280;12195;55.790;37.572;2023-10-31T10:54:26;99558.05;;;15.71;67.16
20228;BME280;12195;55.790;37.572;2023-10-31T10:57:14;99555.05;;;15.64;67.31
20228;BME280;12195;55.790;37.572;2023-10-31T11:00:02;99564.32;;;15.70;67.29
20228;BME280;12195;55.790;37.572;2023-10-31T11:02:33;99579.70;;;15.54;66.75
20228;BME280;12195;55.790;37.572;2023-10-31T11:05:19;99571.78;;;15.65;66.27
20228;BME280;12195;55.790;37.572;2023-10-31T11:07:51;99579.22;;;15.49;66.39
20228;BME280;12195;55.790;37.572;2023-10-31T11:10:27;99569.83;;;15.45;66.40
20228;BME280;12195;55.790;37.572;2023-10-31T11:13:11;99575.00;;;15.57;66.37
20228;BME280;12195;55.790;37.572;2023-10-31T11:15:45;99579.33;;;15.47;66.26
20228;BME280;12195;55.790;37.572;2023-10-31T11:18:30;99570.56;;;15.58;66.15
20228;BME280;12195;55.790;37.572;2023-10-31T11:21:03;99571.73;;;15.43;66.29
20228;BME280;12195;55.790;37.572;2023-10-31T11:23:56;99572.73;;;15.53;66.13
20228;BME280;12195;55.790;37.572;2023-10-31T11:26:22;99576.76;;;15.35;65.63
20228;BME280;12195;55.790;37.572;2023-10-31T11:29:05;99575.56;;;15.39;65.21
20228;BME280;12195;55.790;37.572;2023-10-31T11:31:37;99575.48;;;15.17;65.51
20228;BME280;12195;55.790;37.572;2023-10-31T11:34:22;99561.92;;;15.21;65.87
20228;BME280;12195;55.790;37.572;2023-10-31T11:37:11;99556.70;;;15.09;65.97
20228;BME280;12195;55.790;37.572;2023-10-31T11:39:27;99560.09;;;15.11;66.14
20228;BME280;12195;55.790;37.572;2023-10-31T11:42:16;99559.55;;;15.29;66.25
20228;BME280;12195;55.790;37.572;2023-10-31T11:44:55;99561.07;;;15.21;66.15
20228;BME280;12195;55.790;37.572;2023-10-31T11:47:30;99561.67;;;15.24;66.08
20228;BME280;12195;55.790;37.572;2023-10-31T11:50:12;99561.74;;;15.35;65.86
20228;BME280;12195;55.790;37.572;2023-10-31T11:52:44;99556.75;;;15.20;66.06
20228;BME280;12195;55.790;37.572;2023-10-31T11:55:21;99566.84;;;15.15;66.21
20228;BME280;12195;55.790;37.572;2023-10-31T11:58:17;99565.28;;;15.23;66.35
20228;BME280;12195;55.790;37.572;2023-10-31T12:00:50;99562.59;;;15.12;66.50
20228;BME280;12195;55.790;37.572;2023-10-31T12:03:38;99563.64;;;15.33;66.08
20228;BME280;12195;55.790;37.572;2023-10-31T12:06:11;99562.78;;;15.33;66.13
20228;BME280;12195;55.790;37.572;2023-10-31T12:08:43;99562.00;;;15.43;66.11
20228;BME280;12195;55.790;37.572;2023-10-31T12:11:26;99561.91;;;15.56;66.11
20228;BME280;12195;55.790;37.572;2023-10-31T12:13:59;99568.38;;;15.41;66.25
20228;BME280;12195;55.790;37.572;2023-10-31T12:16:32;99564.83;;;15.29;66.28
20228;BME280;12195;55.790;37.572;2023-10-31T12:19:04;99552.54;;;15.17;66.71
20228;BME280;12195;55.790;37.572;2023-10-31T12:21:49;99553.73;;;15.13;67.04
20228;BME280;12195;55.790;37.572;2023-10-31T12:24:21;99557.46;;;14.87;67.13
20228;BME280;12195;55.790;37.572;2023-10-31T12:26:53;99552.48;;;14.72;67.17
20228;BME280;12195;55.790;37.572;2023-10-31T12:29:38;99547.30;;;14.70;67.21
20228;BME280;12195;55.790;37.572;2023-10-31T12:32:11;99552.37;;;14.50;67.53
20228;BME280;12195;55.790;37.572;2023-10-31T12:34:56;99549.48;;;14.53;67.53
20228;BME280;12195;55.790;37.572;2023-10-31T12:37:28;99545.66;;;14.33;67.57
20228;BME280;12195;55.790;37.572;2023-10-31T12:40:01;99545.88;;;14.30;67.78
20228;BME280;12195;55.790;37.572;2023-10-31T12:42:47;99548.98;;;14.48;68.05
20228;BME280;12195;55.790;37.572;2023-10-31T12:45:19;99557.20;;;14.56;67.63
20228;BME280;12195;55.790;37.572;2023-10-31T12:48:08;99564.15;;;15.04;66.98
20228;BME280;12195;55.790;37.572;2023-10-31T12:50:40;99550.11;;;15.14;66.46
20228;BME280;12195;55.790;37.572;2023-10-31T12:53:24;99550.81;;;15.40;66.11
20228;BME280;12195;55.790;37.572;2023-10-31T12:55:55;99554.25;;;15.29;66.20
20228;BME280;12195;55.790;37.572;2023-10-31T12:58:41;99556.70;;;15.43;65.72
20228;BME280;12195;55.790;37.572;2023-10-31T13:01:13;99555.56;;;15.24;65.73
20228;BME280;12195;55.790;37.572;2023-10-31T13:03:58;99559.14;;;15.23;65.71
20228;BME280;12195;55.790;37.572;2023-10-31T13:06:30;99562.80;;;14.98;66.14
20228;BME280;12195;55.790;37.572;2023-10-31T13:09:02;99565.75;;;14.83;66.50
20228;BME280;12195;55.790;37.572;2023-10-31T13:11:49;99573.41;;;14.75;66.60
20228;BME280;12195;55.790;37.572;2023-10-31T13:14:21;99568.23;;;14.50;67.15
20228;BME280;12195;55.790;37.572;2023-10-31T13:16:54;99568.83;;;14.30;67.24
20228;BME280;12195;55.790;37.572;2023-10-31T13:19:26;99574.75;;;14.08;67.56
20228;BME280;12195;55.790;37.572;2023-10-31T13:22:10;99577.95;;;14.01;67.75
20228;BME280;12195;55.790;37.572;2023-10-31T13:24:42;99584.83;;;13.66;67.98
20228;BME280;12195;55.790;37.572;2023-10-31T13:27:14;99590.52;;;13.47;68.55
20228;BME280;12195;55.790;37.572;2023-10-31T13:29:47;99583.97;;;13.28;68.72
20228;BME280;12195;55.790;37.572;2023-10-31T13:32:33;99583.02;;;13.16;68.97
20228;BME280;12195;55.790;37.572;2023-10-31T13:35:06;99591.12;;;12.87;69.26
20228;BME280;12195;55.790;37.572;2023-10-31T13:37:39;99596.75;;;12.68;69.75
20228;BME280;12195;55.790;37.572;2023-10-31T13:40:11;99591.91;;;12.48;70.06
20228;BME280;12195;55.790;37.572;2023-10-31T13:42:57;99591.47;;;12.42;70.40
20228;BME280;12195;55.790;37.572;2023-10-31T13:45:29;99597.23;;;12.20;70.78
20228;BME280;12195;55.790;37.572;2023-10-31T13:48:14;99599.23;;;12.17;70.89
20228;BME280;12195;55.790;37.572;2023-10-31T13:50:46;99590.14;;;11.94;71.04
20228;BME280;12195;55.790;37.572;2023-10-31T13:53:18;99585.33;;;11.87;71.43